Time;durP1;ratioP1;P1;durP2;ratioP2;P2;SDS_P1;SDS_P2;PMS_P1;PMS_P2;Temp;Humidity;BMP_temperature;BMP_pressure;BME280_temperature;BME280_humidity;BME280_pressure;Samples;Min_cycle;Max_cycle;Signal;HPM_P1;HPM_P2
2022/02/27 00:03:05;;;;;;;81.50;40.70;;;;;;;0.02;66.24;102098.98;130430;1268;108650;-74
2022/02/27 00:06:11;;;;;;;85.30;42.70;;;;;;;0.06;66.39;102096.78;130395;1267;108654;-73
2022/02/27 00:09:16;;;;;;;86.70;42.90;;;;;;;0.11;66.45;102098.77;130472;1266;109168;-72
2022/02/27 00:12:22;;;;;;;83.10;40.80;;;;;;;0.14;66.34;102105.48;130447;1268;108860;-73
2022/02/27 00:15:27;;;;;;;83.40;40.60;;;;;;;0.15;66.48;102103.89;130411;1267;108731;-73
2022/02/27 00:18:33;;;;;;;81.10;39.80;;;;;;;0.17;66.35;102100.31;130445;1267;109708;-73
2022/02/27 00:21:38;;;;;;;80.00;38.40;;;;;;;0.18;66.41;102104.14;130427;1267;108643;-74
2022/02/27 00:24:43;;;;;;;74.80;39.10;;;;;;;0.22;66.63;102101.77;130381;1268;108953;-74
2022/02/27 00:27:49;;;;;;;80.30;39.50;;;;;;;0.25;66.54;102095.91;130465;1268;107388;-73
2022/02/27 00:30:55;;;;;;;78.40;40.30;;;;;;;0.27;66.48;102094.64;130381;1267;108974;-73
2022/02/27 00:34:00;;;;;;;83.80;43.80;;;;;;;0.29;66.48;102098.61;130432;1268;109165;-73
2022/02/27 00:37:06;;;;;;;78.90;39.60;;;;;;;0.28;66.45;102095.31;130379;1268;109177;-73
2022/02/27 00:40:14;;;;;;;85.70;40.80;;;;;;;0.28;66.48;102099.68;130468;1267;108985;-74
2022/02/27 00:43:19;;;;;;;89.40;39.70;;;;;;;0.30;66.70;102104.89;130391;1268;107697;-74
2022/02/27 00:46:26;;;;;;;83.50;39.00;;;;;;;0.34;66.50;102106.85;130378;1268;108980;-72
2022/02/27 00:49:31;;;;;;;74.00;33.50;;;;;;;0.43;66.54;102106.27;130397;1268;108655;-72
2022/02/27 00:52:37;;;;;;;79.20;36.10;;;;;;;0.56;66.54;102112.41;130430;1267;108622;-75
2022/02/27 00:55:43;;;;;;;74.10;36.20;;;;;;;0.67;66.59;102110.88;130423;1265;108642;-74
2022/02/27 00:58:50;;;;;;;72.50;36.10;;;;;;;0.74;66.56;102108.55;130425;1266;108939;-73
2022/02/27 01:01:56;;;;;;;76.20;36.80;;;;;;;0.80;66.61;102102.06;130406;1268;108786;-74
2022/02/27 01:05:01;;;;;;;71.00;37.20;;;;;;;0.86;66.44;102098.95;130583;1266;108718;-74
2022/02/27 01:08:07;;;;;;;72.60;36.70;;;;;;;0.88;66.62;102098.52;130474;1268;109036;-73
2022/02/27 01:11:13;;;;;;;72.70;36.90;;;;;;;0.91;66.54;102101.58;130371;1268;106726;-73
2022/02/27 01:14:19;;;;;;;74.90;37.50;;;;;;;0.91;66.67;102102.11;130555;1268;107763;-74
2022/02/27 01:17:25;;;;;;;76.70;37.70;;;;;;;0.93;66.66;102102.92;130535;1268;108939;-74
2022/02/27 01:20:31;;;;;;;74.40;35.70;;;;;;;0.94;66.78;102103.23;130470;1267;108953;-74
2022/02/27 01:23:36;;;;;;;70.70;35.50;;;;;;;0.94;66.78;102102.90;130489;1266;108706;-74
2022/02/27 01:26:42;;;;;;;67.50;35.50;;;;;;;0.93;66.73;102096.08;130394;1267;107609;-75
2022/02/27 01:29:47;;;;;;;73.90;36.80;;;;;;;0.94;66.75;102094.14;130437;1268;108616;-74
2022/02/27 01:32:53;;;;;;;73.30;35.50;;;;;;;0.92;66.77;102095.40;130396;1268;108707;-74
2022/02/27 01:36:02;;;;;;;72.90;36.00;;;;;;;0.91;66.85;102097.02;130415;1268;108672;-74
2022/02/27 01:39:08;;;;;;;77.20;37.70;;;;;;;0.91;66.87;102093.71;130432;1266;108656;-73
2022/02/27 01:42:17;;;;;;;77.20;39.80;;;;;;;0.89;66.91;102101.98;130428;1267;107712;-73
2022/02/27 01:45:23;;;;;;;84.00;40.10;;;;;;;0.83;66.99;102100.06;130404;1267;108797;-74
2022/02/27 01:48:28;;;;;;;74.00;39.30;;;;;;;0.81;67.15;102095.74;130387;1268;108670;-74
2022/02/27 01:51:34;;;;;;;83.70;40.40;;;;;;;0.84;67.15;102090.06;130363;1268;108846;-73
2022/02/27 01:54:41;;;;;;;97.10;44.50;;;;;;;0.84;67.18;102088.65;130413;1268;109218;-74
2022/02/27 01:57:47;;;;;;;117.70;46.20;;;;;;;0.84;67.31;102082.86;130414;1267;108673;-74
2022/02/27 02:00:53;;;;;;;95.80;41.90;;;;;;;0.89;67.43;102083.95;130355;1268;108862;-73
2022/02/27 02:04:00;;;;;;;88.50;40.80;;;;;;;0.94;67.28;102086.58;130368;1266;108773;-73
2022/02/27 02:07:05;;;;;;;76.30;34.70;;;;;;;1.02;67.24;102082.68;130396;1268;108896;-74
2022/02/27 02:10:12;;;;;;;79.60;37.90;;;;;;;1.11;67.27;102087.83;130409;1267;107723;-73
2022/02/27 02:13:20;;;;;;;82.20;39.60;;;;;;;1.19;67.29;102088.30;130400;1268;108737;-73
2022/02/27 02:16:26;;;;;;;80.70;37.20;;;;;;;1.24;67.24;102089.20;130438;1267;108561;-75
2022/02/27 02:19:32;;;;;;;73.30;36.70;;;;;;;1.25;67.28;102091.29;130411;1267;108538;-73
2022/02/27 02:22:43;;;;;;;72.70;36.60;;;;;;;1.26;67.28;102088.97;130400;1267;108699;-74
2022/02/27 02:25:49;;;;;;;74.50;37.40;;;;;;;1.24;67.26;102083.23;130543;1267;108699;-74
2022/02/27 02:28:55;;;;;;;90.40;40.70;;;;;;;1.21;67.34;102085.29;130547;1267;108929;-74
2022/02/27 02:32:00;;;;;;;78.20;38.00;;;;;;;1.13;67.29;102083.58;130499;1268;108836;-74
2022/02/27 02:35:09;;;;;;;74.00;37.70;;;;;;;1.06;67.35;102086.61;130378;1267;107308;-74
2022/02/27 02:38:15;;;;;;;74.00;36.00;;;;;;;1.01;67.48;102087.09;130412;1268;107468;-74
2022/02/27 02:41:20;;;;;;;71.30;36.40;;;;;;;0.98;67.50;102087.52;130370;1268;108698;-73
2022/02/27 02:44:26;;;;;;;75.40;37.60;;;;;;;0.96;67.39;102087.05;130490;1268;108661;-72
2022/02/27 02:47:31;;;;;;;73.10;38.00;;;;;;;0.94;67.44;102088.16;130358;1266;108662;-74
2022/02/27 02:50:37;;;;;;;77.00;37.00;;;;;;;0.93;67.60;102094.70;130374;1268;108412;-73
2022/02/27 02:53:43;;;;;;;78.00;36.10;;;;;;;0.90;67.61;102100.02;130390;1268;108928;-73
2022/02/27 02:56:49;;;;;;;75.10;36.40;;;;;;;0.90;67.57;102099.02;130346;1268;108796;-75
2022/02/27 02:59:54;;;;;;;73.30;35.80;;;;;;;0.88;67.48;102099.05;130444;1267;108649;-74
2022/02/27 03:02:59;;;;;;;69.50;35.40;;;;;;;0.87;67.57;102099.27;130508;1268;108678;-73
2022/02/27 03:06:05;;;;;;;77.10;37.30;;;;;;;0.85;67.73;102097.05;130450;1267;109702;-76
2022/02/27 03:09:11;;;;;;;73.10;35.70;;;;;;;0.83;67.81;102098.66;130446;1268;109166;-75
2022/02/27 03:12:16;;;;;;;74.70;35.00;;;;;;;0.84;67.74;102105.82;130403;1267;108670;-74
2022/02/27 03:15:21;;;;;;;63.00;31.50;;;;;;;0.88;67.73;102111.64;130422;1268;108799;-76
2022/02/27 03:18:27;;;;;;;80.90;35.70;;;;;;;0.96;67.85;102113.19;130416;1267;108744;-74
2022/02/27 03:21:33;;;;;;;61.70;29.50;;;;;;;1.04;68.06;102113.28;130382;1267;108830;-74
2022/02/27 03:24:38;;;;;;;53.90;27.10;;;;;;;1.09;68.39;102116.29;130425;1266;108840;-74
2022/02/27 03:27:44;;;;;;;66.10;32.20;;;;;;;1.14;68.56;102117.89;130454;1268;108094;-74
2022/02/27 03:30:49;;;;;;;60.30;29.70;;;;;;;1.15;68.51;102120.65;130421;1268;107632;-73
2022/02/27 03:33:56;;;;;;;52.30;27.30;;;;;;;1.15;68.84;102123.27;130460;1267;108958;-73
2022/02/27 03:37:01;;;;;;;55.70;29.30;;;;;;;1.17;68.93;102119.55;130390;1268;108668;-73
2022/02/27 03:40:09;;;;;;;53.80;28.30;;;;;;;1.18;68.74;102126.02;130390;1267;108878;-74
2022/02/27 03:43:15;;;;;;;62.90;30.10;;;;;;;1.19;68.62;102126.14;130405;1267;108918;-74
2022/02/27 03:46:20;;;;;;;65.90;30.40;;;;;;;1.20;68.57;102133.50;130422;1267;107404;-75
2022/02/27 03:49:26;;;;;;;54.80;25.80;;;;;;;1.22;68.69;102139.77;130417;1268;108749;-73
2022/02/27 03:52:31;;;;;;;45.20;23.80;;;;;;;1.21;69.52;102143.45;130419;1268;108962;-74
2022/02/27 03:55:37;;;;;;;43.40;21.80;;;;;;;1.17;69.97;102149.52;130366;1268;108856;-75
2022/02/27 03:58:42;;;;;;;43.00;20.80;;;;;;;1.13;70.38;102151.74;130550;1268;108530;-74
2022/02/27 04:01:48;;;;;;;38.20;18.40;;;;;;;1.11;70.00;102151.11;130520;1267;108861;-73
2022/02/27 04:04:53;;;;;;;31.60;15.90;;;;;;;1.14;71.17;102147.50;130372;1268;108866;-73
2022/02/27 04:07:59;;;;;;;39.50;20.00;;;;;;;1.22;71.13;102148.15;130377;1267;109044;-73
2022/02/27 04:11:04;;;;;;;55.90;29.80;;;;;;;1.24;71.19;102147.23;130378;1268;108597;-75
2022/02/27 04:14:10;;;;;;;51.20;23.40;;;;;;;1.27;70.75;102142.41;130462;1267;108636;-73
2022/02/27 04:17:15;;;;;;;51.70;28.10;;;;;;;1.34;70.68;102144.45;130427;1267;108729;-74
2022/02/27 04:20:21;;;;;;;39.40;20.50;;;;;;;1.38;70.51;102144.17;130441;1268;107618;-74
2022/02/27 04:23:26;;;;;;;30.20;16.30;;;;;;;1.38;70.72;102145.20;130426;1268;108892;-73
2022/02/27 04:26:32;;;;;;;32.00;15.40;;;;;;;1.36;70.68;102148.44;130387;1267;108774;-73
2022/02/27 04:29:37;;;;;;;34.00;18.20;;;;;;;1.33;70.89;102146.77;130442;1268;106723;-73
2022/02/27 04:32:43;;;;;;;30.10;15.60;;;;;;;1.34;70.91;102150.07;130394;1267;108831;-74
2022/02/27 04:35:49;;;;;;;31.30;15.40;;;;;;;1.37;70.90;102149.27;130508;1268;108893;-73
2022/02/27 04:38:55;;;;;;;35.70;16.90;;;;;;;1.40;70.99;102149.20;130517;1267;106920;-74
2022/02/27 04:42:00;;;;;;;33.90;14.90;;;;;;;1.42;71.26;102149.14;130347;1268;108721;-74
2022/02/27 04:45:08;;;;;;;43.30;22.70;;;;;;;1.42;71.11;102155.61;130396;1267;108736;-74
2022/02/27 04:48:13;;;;;;;63.80;33.00;;;;;;;1.46;71.02;102148.14;130454;1267;108868;-73
2022/02/27 04:51:19;;;;;;;133.00;48.10;;;;;;;1.51;71.08;102150.41;130571;1267;106875;-75
2022/02/27 04:54:24;;;;;;;48.80;23.00;;;;;;;1.50;71.07;102146.23;130482;1267;108891;-74
2022/02/27 04:57:31;;;;;;;39.60;18.80;;;;;;;1.49;71.00;102149.27;130566;1268;107235;-74
2022/02/27 05:00:36;;;;;;;43.20;20.80;;;;;;;1.55;71.03;102148.53;130368;1268;108570;-73
2022/02/27 05:03:42;;;;;;;31.50;16.60;;;;;;;1.60;71.00;102157.52;130386;1266;108895;-74
2022/02/27 05:06:47;;;;;;;27.40;16.50;;;;;;;1.60;71.41;102157.69;130514;1268;108687;-73
2022/02/27 05:09:53;;;;;;;31.40;17.20;;;;;;;1.56;71.84;102159.39;130363;1267;108692;-74
2022/02/27 05:12:59;;;;;;;31.40;16.70;;;;;;;1.49;71.86;102158.38;130401;1266;107678;-74
2022/02/27 05:16:04;;;;;;;28.10;14.80;;;;;;;1.47;72.66;102164.05;130421;1268;108685;-74
2022/02/27 05:19:12;;;;;;;28.30;14.60;;;;;;;1.47;72.98;102166.14;130372;1266;108850;-75
2022/02/27 05:22:17;;;;;;;24.70;14.20;;;;;;;1.50;72.65;102166.75;130413;1267;109550;-72
2022/02/27 05:25:24;;;;;;;26.10;13.70;;;;;;;1.54;72.48;102170.14;130475;1268;107332;-74
2022/02/27 05:28:29;;;;;;;21.00;12.80;;;;;;;1.58;72.58;102174.75;130412;1268;108851;-76
2022/02/27 05:31:35;;;;;;;23.70;12.30;;;;;;;1.61;72.50;102179.59;130364;1268;108679;-75
2022/02/27 05:34:40;;;;;;;23.90;12.10;;;;;;;1.56;72.93;102181.66;130403;1267;108826;-75
2022/02/27 05:37:46;;;;;;;22.30;10.90;;;;;;;1.47;72.73;102185.27;130541;1267;108807;-74
2022/02/27 05:40:51;;;;;;;21.10;11.00;;;;;;;1.47;72.71;102186.15;130507;1268;108963;-72
2022/02/27 05:43:57;;;;;;;15.60;8.30;;;;;;;1.45;72.75;102186.90;130556;1267;108877;-75
2022/02/27 05:47:03;;;;;;;23.10;10.30;;;;;;;1.48;72.99;102183.64;130404;1268;109266;-75
2022/02/27 05:50:10;;;;;;;19.00;10.20;;;;;;;1.54;73.42;102188.20;130351;1267;108643;-74
2022/02/27 05:53:15;;;;;;;18.60;9.70;;;;;;;1.53;72.98;102183.85;130416;1268;108796;-74
2022/02/27 05:56:21;;;;;;;20.90;10.80;;;;;;;1.57;72.78;102185.66;130382;1267;107742;-76
2022/02/27 05:59:26;;;;;;;29.50;15.60;;;;;;;1.60;72.74;102184.69;130403;1267;108835;-72
2022/02/27 06:02:32;;;;;;;22.10;12.10;;;;;;;1.59;72.82;102187.55;130427;1268;108694;-74
2022/02/27 06:05:38;;;;;;;23.90;12.10;;;;;;;1.57;72.94;102187.77;130461;1268;108722;-75
2022/02/27 06:08:43;;;;;;;23.00;11.90;;;;;;;1.61;72.78;102193.95;130438;1267;108839;-74
2022/02/27 06:11:49;;;;;;;19.80;9.70;;;;;;;1.70;72.75;102198.25;130397;1268;108719;-74
2022/02/27 06:14:54;;;;;;;23.50;13.90;;;;;;;1.82;72.78;102196.11;130393;1268;108930;-74
2022/02/27 06:17:59;;;;;;;24.10;13.20;;;;;;;1.89;72.86;102199.41;130393;1268;107740;-73
2022/02/27 06:21:05;;;;;;;21.30;13.20;;;;;;;1.92;72.90;102201.75;130387;1267;108839;-75
2022/02/27 06:24:11;;;;;;;24.90;14.10;;;;;;;1.92;72.73;102204.39;130470;1266;108900;-74
2022/02/27 06:27:16;;;;;;;27.30;15.00;;;;;;;1.92;72.75;102199.98;130398;1268;107683;-74
2022/02/27 06:30:23;;;;;;;26.60;15.70;;;;;;;1.91;72.89;102206.67;130406;1268;108651;-75
2022/02/27 06:33:29;;;;;;;29.60;15.50;;;;;;;1.91;73.27;102215.13;130421;1268;107669;-73
2022/02/27 06:36:34;;;;;;;31.20;16.10;;;;;;;1.76;74.01;102217.35;130561;1268;107694;-75
2022/02/27 06:39:39;;;;;;;28.40;15.40;;;;;;;1.61;73.93;102223.28;130354;1267;108695;-73
2022/02/27 06:42:45;;;;;;;31.40;16.00;;;;;;;1.55;73.77;102220.45;130358;1268;108743;-76
2022/02/27 06:45:51;;;;;;;26.80;15.20;;;;;;;1.56;73.78;102219.04;130364;1267;108800;-72
2022/02/27 06:48:56;;;;;;;25.60;13.10;;;;;;;1.58;74.85;102220.89;130387;1267;108725;-72
2022/02/27 06:52:02;;;;;;;29.90;16.90;;;;;;;1.57;74.47;102222.51;130351;1268;108894;-73
2022/02/27 06:55:08;;;;;;;27.00;15.40;;;;;;;1.49;75.48;102223.45;130424;1268;108839;-73
2022/02/27 06:58:14;;;;;;;28.50;15.00;;;;;;;1.35;76.10;102224.36;130354;1268;108879;-73
2022/02/27 07:01:20;;;;;;;39.20;21.10;;;;;;;1.34;75.23;102220.91;130376;1268;108770;-74
2022/02/27 07:04:25;;;;;;;33.10;17.90;;;;;;;1.36;75.75;102227.52;130447;1268;108581;-74
2022/02/27 07:07:31;;;;;;;38.20;20.10;;;;;;;1.27;76.63;102228.48;130388;1267;107743;-72
2022/02/27 07:10:36;;;;;;;25.90;15.50;;;;;;;1.13;77.17;102229.02;130516;1268;108775;-73
2022/02/27 07:13:46;;;;;;;22.00;11.80;;;;;;;1.07;77.17;102232.21;130435;1267;108694;-74
2022/02/27 07:16:51;;;;;;;25.60;14.00;;;;;;;1.15;76.49;102230.58;130523;1268;108879;-75
2022/02/27 07:19:57;;;;;;;26.30;14.10;;;;;;;1.27;76.12;102230.95;130407;1267;108722;-74
2022/02/27 07:23:02;;;;;;;28.90;16.00;;;;;;;1.33;75.71;102238.81;130428;1268;108950;-74
2022/02/27 07:26:08;;;;;;;26.90;14.80;;;;;;;1.29;76.27;102248.58;130405;1268;108690;-75
2022/02/27 07:29:13;;;;;;;26.30;15.30;;;;;;;1.26;75.69;102245.88;130373;1268;108475;-75
2022/02/27 07:32:18;;;;;;;31.40;18.00;;;;;;;1.36;75.59;102251.20;130590;1267;107485;-76
2022/02/27 07:35:24;;;;;;;25.60;15.30;;;;;;;1.42;76.03;102248.73;130621;1267;108733;-77
2022/02/27 07:38:29;;;;;;;29.10;16.90;;;;;;;1.42;75.64;102250.14;130449;1268;107468;-76
2022/02/27 07:41:36;;;;;;;25.50;14.90;;;;;;;1.39;76.04;102253.52;130399;1267;108735;-75
2022/02/27 07:44:46;;;;;;;25.10;15.10;;;;;;;1.32;76.52;102254.80;130422;1268;107710;-74
2022/02/27 07:47:52;;;;;;;23.80;14.60;;;;;;;1.24;76.59;102252.77;130422;1268;109014;-75
2022/02/27 07:50:57;;;;;;;27.40;15.50;;;;;;;1.18;76.83;102260.27;130594;1267;108748;-75
2022/02/27 07:54:03;;;;;;;28.90;16.80;;;;;;;1.12;76.91;102259.76;130398;1266;108782;-74
2022/02/27 07:57:09;;;;;;;26.00;16.10;;;;;;;1.10;77.43;102258.23;130458;1268;108820;-75
2022/02/27 08:00:16;;;;;;;26.80;16.80;;;;;;;1.05;78.05;102265.02;130445;1266;108654;-74
2022/02/27 08:03:22;;;;;;;30.20;18.40;;;;;;;1.00;77.33;102268.13;130462;1267;108740;-76
2022/02/27 08:06:27;;;;;;;75.70;33.00;;;;;;;1.03;76.91;102263.15;130324;1268;108769;-75
2022/02/27 08:09:33;;;;;;;84.50;35.00;;;;;;;1.15;77.22;102257.04;130337;1268;107792;-74
2022/02/27 08:12:43;;;;;;;61.60;28.40;;;;;;;1.20;76.96;102260.05;130308;1267;107641;-75
2022/02/27 08:15:48;;;;;;;64.40;33.90;;;;;;;1.22;77.39;102259.66;130068;1268;302329;-76
2022/02/27 08:18:54;;;;;;;49.30;23.40;;;;;;;1.27;77.59;102256.89;130339;1268;108852;-75
2022/02/27 08:21:59;;;;;;;46.60;24.70;;;;;;;1.33;76.83;102261.95;130329;1268;108828;-75
2022/02/27 08:25:06;;;;;;;235.40;109.60;;;;;;;1.39;76.77;102261.45;130409;1268;108875;-74
2022/02/27 08:28:12;;;;;;;308.30;191.80;;;;;;;1.36;77.34;102261.00;130463;1268;108950;-75
2022/02/27 08:31:17;;;;;;;81.10;46.80;;;;;;;1.36;76.92;102260.66;130354;1267;107135;-76
2022/02/27 08:34:27;;;;;;;50.70;31.70;;;;;;;1.44;76.52;102261.65;130263;1268;108695;-76
2022/02/27 08:37:32;;;;;;;32.40;19.20;;;;;;;1.52;76.58;102261.92;130248;1268;108870;-75
2022/02/27 08:40:38;;;;;;;41.20;24.90;;;;;;;1.55;76.43;102258.00;130276;1271;106783;-74
2022/02/27 08:43:43;;;;;;;42.40;25.20;;;;;;;1.60;76.64;102258.89;130255;1269;108697;-74
2022/02/27 08:46:49;;;;;;;55.20;30.50;;;;;;;1.65;76.75;102254.89;130242;1268;108718;-75
2022/02/27 08:49:54;;;;;;;36.20;20.50;;;;;;;1.71;76.66;102255.41;130303;1268;107107;-75
2022/02/27 08:53:00;;;;;;;32.00;18.60;;;;;;;1.72;77.00;102261.52;130290;1268;108856;-75
2022/02/27 08:56:05;;;;;;;48.50;30.20;;;;;;;1.65;76.70;102266.13;130286;1270;108858;-73
2022/02/27 08:59:11;;;;;;;37.90;22.90;;;;;;;1.62;76.84;102266.73;130245;1268;108933;-75
2022/02/27 09:02:16;;;;;;;30.60;17.50;;;;;;;1.65;76.90;102264.90;130220;1269;108881;-76
2022/02/27 09:05:22;;;;;;;32.50;19.70;;;;;;;1.75;76.42;102262.66;130225;1268;109167;-76
2022/02/27 09:08:27;;;;;;;129.40;97.90;;;;;;;1.86;76.63;102261.98;130332;1271;107412;-77
2022/02/27 09:11:33;;;;;;;37.70;24.50;;;;;;;1.96;76.12;102258.86;130251;1268;108807;-76
2022/02/27 09:14:38;;;;;;;35.50;22.00;;;;;;;2.03;76.32;102258.81;130264;1269;106890;-78
2022/02/27 09:17:44;;;;;;;40.20;25.10;;;;;;;1.95;76.28;102257.13;130274;1268;109031;-75
2022/02/27 09:20:50;;;;;;;29.70;19.40;;;;;;;2.04;76.16;102255.42;130262;1269;108777;-74
2022/02/27 09:23:55;;;;;;;29.90;17.50;;;;;;;2.14;76.15;102258.83;130407;1269;108791;-73
2022/02/27 09:27:01;;;;;;;23.10;14.20;;;;;;;2.19;75.93;102257.95;130335;1269;107694;-77
2022/02/27 09:30:08;;;;;;;26.50;14.70;;;;;;;2.23;75.86;102263.59;130284;1268;108762;-74
2022/02/27 09:33:13;;;;;;;29.00;18.30;;;;;;;2.17;75.83;102264.86;130285;1268;108576;-76
2022/02/27 09:36:19;;;;;;;29.00;17.00;;;;;;;2.25;75.81;102270.03;130344;1269;108994;-76
2022/02/27 09:39:26;;;;;;;39.50;21.20;;;;;;;2.27;75.59;102267.70;130324;1270;108580;-76
2022/02/27 09:42:33;;;;;;;38.50;26.10;;;;;;;2.26;75.88;102261.77;130288;1268;109340;-75
2022/02/27 09:45:39;;;;;;;28.70;18.20;;;;;;;2.25;75.94;102260.20;130301;1268;108707;-75
2022/02/27 09:48:46;;;;;;;30.90;19.30;;;;;;;2.25;75.60;102261.94;130268;1268;108707;-78
2022/02/27 09:51:52;;;;;;;30.10;17.30;;;;;;;2.12;75.81;102263.97;130308;1268;108726;-76
2022/02/27 09:54:57;;;;;;;25.30;15.60;;;;;;;2.11;75.64;102257.48;130278;1268;108710;-75
2022/02/27 09:58:03;;;;;;;25.50;15.50;;;;;;;2.22;75.55;102251.88;130256;1268;108789;-75
2022/02/27 10:01:09;;;;;;;27.50;17.00;;;;;;;2.39;75.56;102244.81;130302;1268;109691;-74
2022/02/27 10:04:22;;;;;;;159.40;87.10;;;;;;;2.61;75.42;102244.95;130287;1268;108624;-79
2022/02/27 10:07:28;;;;;;;45.60;25.30;;;;;;;2.86;75.15;102244.95;130289;1271;108912;-77
2022/02/27 10:10:34;;;;;;;103.60;68.30;;;;;;;3.03;74.69;102236.63;130274;1269;109725;-75
2022/02/27 10:13:42;;;;;;;37.90;23.40;;;;;;;3.04;74.69;102236.42;130308;1268;108696;-75
2022/02/27 10:16:51;;;;;;;31.30;20.00;;;;;;;3.10;74.80;102236.89;130306;1268;108605;-74
2022/02/27 10:19:56;;;;;;;32.00;18.50;;;;;;;3.08;74.46;102236.42;130325;1268;108869;-75
2022/02/27 10:23:05;;;;;;;30.00;18.60;;;;;;;3.02;74.37;102232.79;130252;1268;108830;-75
2022/02/27 10:26:24;;;;;;;31.10;18.30;;;;;;;3.03;74.40;102232.92;130263;1268;108803;-74
2022/02/27 10:29:30;;;;;;;29.90;17.30;;;;;;;3.12;74.50;102231.89;130244;1268;108869;-76
2022/02/27 10:32:36;;;;;;;35.40;20.80;;;;;;;3.20;74.47;102231.80;130406;1268;108814;-75
2022/02/27 10:35:45;;;;;;;31.10;18.40;;;;;;;3.10;74.09;102223.67;130256;1268;108638;-75
2022/02/27 10:38:53;;;;;;;43.30;23.50;;;;;;;3.03;74.26;102220.11;130404;1268;108599;-75
2022/02/27 10:42:07;;;;;;;30.60;18.00;;;;;;;3.10;74.34;102226.18;130246;1268;108703;-75
2022/02/27 10:45:14;;;;;;;32.90;19.50;;;;;;;3.01;74.12;102217.00;130274;1270;108889;-75
2022/02/27 10:48:20;;;;;;;30.70;19.20;;;;;;;2.80;74.44;102225.86;130341;1268;109032;-74
2022/02/27 10:51:33;;;;;;;36.20;22.10;;;;;;;2.63;74.67;102220.80;130453;1268;107481;-75
2022/02/27 10:54:42;;;;;;;26.40;15.30;;;;;;;2.54;74.82;102221.81;130476;1268;109187;-76
2022/02/27 10:57:50;;;;;;;24.80;14.60;;;;;;;2.36;75.48;102221.04;130566;1268;109983;-76
2022/02/27 11:00:56;;;;;;;91.00;45.50;;;;;;;2.19;75.76;102216.68;130621;1268;109568;-77
2022/02/27 11:04:01;;;;;;;35.00;23.80;;;;;;;2.23;75.44;102216.73;130288;1268;108673;-75
2022/02/27 11:07:07;;;;;;;28.20;17.30;;;;;;;2.36;75.24;102217.66;130254;1270;108847;-76
2022/02/27 11:10:14;;;;;;;33.60;21.00;;;;;;;2.51;75.11;102216.64;130260;1269;107654;-77
2022/02/27 11:13:21;;;;;;;35.20;21.80;;;;;;;2.56;74.80;102219.48;130261;1268;108868;-76
2022/02/27 11:16:31;;;;;;;28.80;16.80;;;;;;;2.63;74.79;102222.23;130252;1268;108842;-78
2022/02/27 11:19:37;;;;;;;30.60;18.30;;;;;;;2.73;74.67;102218.70;130373;1268;108709;-76
2022/02/27 11:22:42;;;;;;;27.10;16.00;;;;;;;2.80;74.34;102219.70;130191;1268;108790;-76
2022/02/27 11:25:50;;;;;;;26.70;16.10;;;;;;;2.71;74.41;102217.86;130194;1268;108963;-74
2022/02/27 11:28:56;;;;;;;53.90;37.70;;;;;;;2.86;74.49;102214.55;130302;1270;108690;-75
2022/02/27 11:32:01;;;;;;;28.00;16.80;;;;;;;2.91;74.21;102217.35;130214;1269;108974;-74
2022/02/27 11:35:08;;;;;;;28.00;17.00;;;;;;;2.85;74.07;102216.86;130264;1268;108968;-76
2022/02/27 11:38:32;;;;;;;24.80;15.10;;;;;;;2.82;74.03;102216.27;130262;1268;108841;-79
2022/02/27 11:41:49;;;;;;;28.80;17.80;;;;;;;2.54;74.43;102216.73;130369;1269;108918;-75
2022/02/27 11:44:55;;;;;;;44.20;21.80;;;;;;;2.38;74.77;102211.33;131009;1268;108846;-80
2022/02/27 11:48:01;;;;;;;30.50;18.10;;;;;;;2.31;74.92;102210.48;130588;1269;108756;-74
2022/02/27 11:51:06;;;;;;;28.20;16.10;;;;;;;2.28;75.17;102209.88;130374;1268;108863;-76
2022/02/27 11:54:15;;;;;;;27.30;16.70;;;;;;;2.24;75.49;102209.50;130310;1271;106877;-75
2022/02/27 11:57:22;;;;;;;26.10;16.10;;;;;;;2.25;75.19;102209.83;130385;1268;108712;-75
2022/02/27 12:00:40;;;;;;;26.70;15.70;;;;;;;2.37;75.09;102207.67;130369;1269;107010;-75
2022/02/27 12:03:45;;;;;;;24.80;16.80;;;;;;;2.62;74.81;102206.80;130334;1268;108937;-74
2022/02/27 12:07:08;;;;;;;24.00;15.60;;;;;;;2.83;74.46;102206.04;130374;1268;108727;-76
2022/02/27 12:10:31;;;;;;;27.30;17.60;;;;;;;3.01;74.22;102200.12;130515;1268;108699;-75
2022/02/27 12:13:51;;;;;;;25.70;15.70;;;;;;;3.19;74.04;102197.36;130542;1268;108652;-73
2022/02/27 12:16:57;;;;;;;77.50;52.80;;;;;;;3.36;73.41;102198.30;130357;1268;109671;-75
2022/02/27 12:20:03;;;;;;;46.80;30.30;;;;;;;3.23;73.27;102205.14;130301;1269;108913;-73
2022/02/27 12:23:10;;;;;;;56.00;35.90;;;;;;;3.08;73.60;102204.07;130308;1268;108861;-75
2022/02/27 12:26:43;;;;;;;28.40;16.00;;;;;;;3.06;73.33;102203.82;130255;1269;107718;-73
2022/02/27 12:29:50;;;;;;;33.10;17.40;;;;;;;3.19;73.58;102196.48;130210;1271;108726;-77
2022/02/27 12:33:06;;;;;;;25.80;15.30;;;;;;;3.43;73.24;102186.93;130226;1268;107794;-77
2022/02/27 12:36:12;;;;;;;25.60;16.40;;;;;;;3.64;72.81;102184.54;130234;1268;108845;-75
2022/02/27 12:39:18;;;;;;;25.70;16.60;;;;;;;3.75;72.47;102184.79;130295;1268;109126;-72
2022/02/27 12:42:25;;;;;;;25.90;16.30;;;;;;;3.74;72.41;102183.05;130307;1268;108784;-74
2022/02/27 12:45:33;;;;;;;29.30;17.80;;;;;;;3.74;71.59;102180.95;130355;1268;108787;-75
2022/02/27 12:52:16;;;;;;;29.80;18.50;;;;;;;3.59;72.52;102186.67;130288;1269;108751;-76
2022/02/27 12:55:22;;;;;;;50.50;33.10;;;;;;;3.67;72.29;102183.89;130308;1269;107840;-75
2022/02/27 12:58:39;;;;;;;48.50;29.90;;;;;;;3.69;72.10;102183.12;130487;1268;108939;-74
2022/02/27 13:01:53;;;;;;;66.10;41.50;;;;;;;3.71;72.00;102179.84;130268;1268;108866;-76
2022/02/27 13:05:07;;;;;;;34.90;20.60;;;;;;;3.69;71.93;102175.87;130533;1268;108511;-73
2022/02/27 13:08:13;;;;;;;27.80;16.20;;;;;;;3.72;72.00;102178.76;130234;1268;108995;-76
2022/02/27 13:11:43;;;;;;;24.90;16.40;;;;;;;3.79;71.43;102176.55;130222;1268;108780;-75
2022/02/27 13:14:50;;;;;;;47.90;28.60;;;;;;;3.81;71.30;102175.23;130233;1271;106816;-74
2022/02/27 13:17:56;;;;;;;26.70;15.50;;;;;;;3.86;70.73;102171.32;130315;1268;108738;-77
2022/02/27 13:21:02;;;;;;;23.90;16.00;;;;;;;3.88;70.82;102167.39;130311;1269;108648;-80
2022/02/27 13:24:08;;;;;;;25.40;15.00;;;;;;;3.83;70.68;102164.93;130687;1268;107618;-75
2022/02/27 13:27:25;;;;;;;59.30;35.80;;;;;;;3.78;70.99;102159.49;130341;1268;109136;-75
2022/02/27 13:30:30;;;;;;;31.20;20.70;;;;;;;3.90;71.45;102160.96;131164;1268;109215;-76
2022/02/27 13:33:37;;;;;;;22.10;14.10;;;;;;;3.98;70.98;102161.67;130630;1268;108828;-75
2022/02/27 13:36:43;;;;;;;21.40;13.50;;;;;;;3.85;70.35;102160.44;130445;1268;108636;-76
2022/02/27 13:39:56;;;;;;;28.80;18.90;;;;;;;3.88;70.85;102154.52;130477;1268;108774;-75
2022/02/27 13:43:01;;;;;;;;;;;;;;;3.84;70.02;102150.62;130458;1268;108602;-74
2022/02/27 13:46:09;;;;;;;21.00;12.50;;;;;;;3.65;70.27;102146.29;130611;1268;108650;-76
2022/02/27 13:49:15;;;;;;;20.90;13.40;;;;;;;3.52;70.50;102149.64;130436;1268;108929;-73
2022/02/27 13:52:24;;;;;;;16.90;11.10;;;;;;;3.52;70.65;102147.00;130396;1268;108733;-74
2022/02/27 13:55:32;;;;;;;21.80;12.70;;;;;;;3.49;70.24;102141.11;130317;1268;108884;-76
2022/02/27 13:58:37;;;;;;;27.50;16.70;;;;;;;3.41;70.43;102145.48;130524;1268;108833;-74
2022/02/27 14:01:43;;;;;;;27.40;15.70;;;;;;;3.36;70.18;102143.23;130399;1268;109287;-76
2022/02/27 14:05:18;;;;;;;18.80;12.10;;;;;;;3.28;70.28;102139.85;130407;1268;108713;-79